createdAt,value
2022-11-25T00:01:14.029Z,1.52
2022-11-25T00:03:42.988Z,2.53
2022-11-25T00:06:22.373Z,3.63
2022-11-25T00:09:00.512Z,2.67
2022-11-25T00:11:29.769Z,4.30
2022-11-25T00:14:04.689Z,2.80
2022-11-25T00:16:32.239Z,5.35
2022-11-25T00:19:06.632Z,3.67
2022-11-25T00:21:35.320Z,5.43
2022-11-25T00:24:12.663Z,4.50
2022-11-25T00:26:39.884Z,5.03
2022-11-25T00:29:15.544Z,3.38
2022-11-25T00:31:45.826Z,4.13
2022-11-25T00:34:21.552Z,4.78
2022-11-25T00:36:49.088Z,4.88
2022-11-25T00:39:25.528Z,3.58
2022-11-25T00:42:11.408Z,3.33
2022-11-25T00:44:49.338Z,2.20
2022-11-25T00:47:21.437Z,3.60
2022-11-25T00:50:04.935Z,2.53
2022-11-25T00:52:38.412Z,3.75
2022-11-25T00:55:12.493Z,1.58
2022-11-25T00:57:39.612Z,5.00
2022-11-25T01:00:14.573Z,4.47
2022-11-25T01:02:42.480Z,3.97
2022-11-25T01:05:16.535Z,4.13
2022-11-25T01:07:43.823Z,3.42
2022-11-25T01:10:17.937Z,4.45
2022-11-25T01:12:54.440Z,3.08
2022-11-25T01:15:21.758Z,2.08
2022-11-25T01:17:55.713Z,2.45
2022-11-25T01:20:29.648Z,3.10
2022-11-25T01:22:57.044Z,1.67
2022-11-25T01:25:30.398Z,1.05
2022-11-25T01:28:05.538Z,1.92
2022-11-25T01:30:34.894Z,2.08
2022-11-25T01:33:27.558Z,4.68
2022-11-25T01:36:19.399Z,1.85
2022-11-25T01:38:55.012Z,2.78
2022-11-25T01:41:30.656Z,3.95
2022-11-25T01:44:11.763Z,2.90
2022-11-25T01:47:07.897Z,2.03
2022-11-25T01:49:50.427Z,3.50
2022-11-25T01:52:24.779Z,3.13
2022-11-25T01:55:13.552Z,2.85
2022-11-25T01:57:51.438Z,4.45
2022-11-25T02:00:25.577Z,2.83
2022-11-25T02:03:01.551Z,3.30
2022-11-25T02:05:59.585Z,1.85
2022-11-25T02:08:28.037Z,3.50
2022-11-25T02:11:02.517Z,1.98
2022-11-25T02:13:30.362Z,2.13
2022-11-25T02:16:04.546Z,1.60
2022-11-25T02:18:38.458Z,2.20
2022-11-25T02:21:06.054Z,1.92
2022-11-25T02:23:49.716Z,4.05
2022-11-25T02:26:24.538Z,3.22
2022-11-25T02:28:52.130Z,4.03
2022-11-25T02:31:30.093Z,3.63
2022-11-25T02:33:57.268Z,6.25
2022-11-25T02:36:31.558Z,5.55
2022-11-25T02:39:02.151Z,3.13
2022-11-25T02:41:40.464Z,4.00
2022-11-25T02:44:08.159Z,2.88
2022-11-25T02:46:41.999Z,3.15
2022-11-25T02:49:22.595Z,3.42
2022-11-25T02:51:56.254Z,4.03
2022-11-25T02:54:30.494Z,3.97
2022-11-25T02:56:57.786Z,4.03
2022-11-25T02:59:31.457Z,3.40
2022-11-25T03:01:58.683Z,3.20
2022-11-25T03:04:32.495Z,3.67
2022-11-25T03:07:00.155Z,2.20
2022-11-25T03:09:34.836Z,1.88
2022-11-25T03:12:26.730Z,3.17
2022-11-25T03:15:00.689Z,1.90
2022-11-25T03:17:35.805Z,1.65
2022-11-25T03:22:37.559Z,2.33
2022-11-25T03:25:11.845Z,2.55
2022-11-25T03:27:40.785Z,3.78
2022-11-25T03:30:21.569Z,1.52
2022-11-25T03:32:56.494Z,1.77
2022-11-25T03:35:24.257Z,3.10
2022-11-25T03:37:58.692Z,2.67
2022-11-25T03:40:25.948Z,1.38
2022-11-25T03:42:59.612Z,1.95
2022-11-25T03:45:27.265Z,2.83
2022-11-25T03:48:01.826Z,2.20
2022-11-25T03:50:37.035Z,1.17
2022-11-25T03:53:10.605Z,1.88
2022-11-25T03:55:37.829Z,1.98
2022-11-25T03:58:11.518Z,2.60
2022-11-25T04:00:41.965Z,1.50
2022-11-25T04:03:15.556Z,2.33
2022-11-25T04:05:42.910Z,2.47
2022-11-25T04:08:16.955Z,3.67
2022-11-25T04:10:44.210Z,1.38
2022-11-25T04:13:18.502Z,2.45
2022-11-25T04:15:47.680Z,3.55
2022-11-25T04:18:23.760Z,3.47
2022-11-25T04:20:50.981Z,1.33
2022-11-25T04:23:25.523Z,2.78
2022-11-25T04:25:53.028Z,3.70
2022-11-25T04:28:27.017Z,1.77
2022-11-25T04:30:54.427Z,2.75
2022-11-25T04:33:28.733Z,1.60
2022-11-25T04:35:56.140Z,3.30
2022-11-25T04:38:29.715Z,2.78
2022-11-25T04:40:57.472Z,1.38
2022-11-25T04:43:31.561Z,1.75
2022-11-25T04:46:13.978Z,2.60
2022-11-25T04:48:48.650Z,1.60
2022-11-25T04:51:22.945Z,3.95
2022-11-25T04:53:58.525Z,2.35
2022-11-25T04:56:32.491Z,3.53
2022-11-25T04:59:18.381Z,2.38
2022-11-25T05:01:52.862Z,3.60
2022-11-25T05:04:20.311Z,2.13
2022-11-25T05:06:54.816Z,3.75
2022-11-25T05:09:29.054Z,3.47
2022-11-25T05:11:56.340Z,4.47
2022-11-25T05:14:32.522Z,4.25
2022-11-25T05:16:59.939Z,2.03
2022-11-25T05:19:27.745Z,4.32
2022-11-25T05:22:01.517Z,4.65
2022-11-25T05:24:29.306Z,8.05
2022-11-25T05:27:03.597Z,4.50
2022-11-25T05:29:30.965Z,5.00
2022-11-25T05:32:04.836Z,5.15
2022-11-25T05:34:38.854Z,5.85
2022-11-25T05:37:13.739Z,3.67
2022-11-25T05:39:47.596Z,7.20
2022-11-25T05:42:14.822Z,5.78
2022-11-25T05:44:48.720Z,5.75
2022-11-25T05:47:16.330Z,4.43
2022-11-25T05:49:56.405Z,5.90
2022-11-25T05:52:36.906Z,5.25
2022-11-25T05:55:04.410Z,4.78
2022-11-25T05:57:38.565Z,6.00
2022-11-25T06:00:13.566Z,6.07
2022-11-25T06:05:15.045Z,4.25
2022-11-25T06:07:42.624Z,3.63
2022-11-25T06:10:16.831Z,5.30
2022-11-25T06:12:45.012Z,5.17
2022-11-25T06:15:19.637Z,6.03
2022-11-25T06:17:47.045Z,5.90
2022-11-25T06:20:20.629Z,4.90
2022-11-25T06:22:48.027Z,4.25
2022-11-25T06:25:21.506Z,4.38
2022-11-25T06:28:12.392Z,4.10
2022-11-25T06:30:40.045Z,4.00
2022-11-25T06:33:13.580Z,3.85
2022-11-25T06:35:40.911Z,3.72
2022-11-25T06:38:14.813Z,4.82
2022-11-25T06:40:48.622Z,3.85
2022-11-25T06:43:22.554Z,5.50
2022-11-25T06:45:56.952Z,5.55
2022-11-25T06:48:30.686Z,7.32
2022-11-25T06:51:16.562Z,5.10
2022-11-25T06:53:45.504Z,5.40
2022-11-25T06:56:20.510Z,6.90
2022-11-25T07:01:34.592Z,6.72
2022-11-25T07:04:05.488Z,7.75
2022-11-25T07:06:33.802Z,5.28
2022-11-25T07:09:08.605Z,4.90
2022-11-25T07:11:38.616Z,6.28
2022-11-25T07:14:17.552Z,6.70
2022-11-25T07:16:46.095Z,6.43
2022-11-25T07:19:22.620Z,6.70
2022-11-25T07:21:49.818Z,6.00
2022-11-25T07:24:24.648Z,4.65
2022-11-25T07:26:51.919Z,6.35
2022-11-25T07:29:53.102Z,7.63
2022-11-25T07:32:14.792Z,5.43
2022-11-25T07:34:48.638Z,5.22
2022-11-25T07:37:15.820Z,7.00
2022-11-25T07:39:49.631Z,6.28
2022-11-25T07:42:16.878Z,5.55
2022-11-25T07:44:50.498Z,8.35
2022-11-25T07:47:17.829Z,4.20
2022-11-25T07:49:58.879Z,4.95
2022-11-25T07:52:32.357Z,4.55
2022-11-25T07:55:06.798Z,4.72
2022-11-25T07:57:40.649Z,4.05
2022-11-25T08:00:08.677Z,4.22
2022-11-25T08:02:42.573Z,5.10
2022-11-25T08:05:10.275Z,5.15
2022-11-25T08:07:44.552Z,4.40
2022-11-25T08:10:12.107Z,4.30
2022-11-25T08:12:45.599Z,4.22
2022-11-25T08:15:12.889Z,3.83
2022-11-25T08:17:46.659Z,2.88
2022-11-25T08:20:13.980Z,5.32
2022-11-25T08:22:47.994Z,4.53
2022-11-25T08:25:16.216Z,6.00
2022-11-25T08:27:49.776Z,6.25
2022-11-25T08:30:17.133Z,4.93
2022-11-25T08:32:50.553Z,5.07
2022-11-25T08:35:17.955Z,5.57
2022-11-25T08:37:53.606Z,6.32
2022-11-25T08:40:20.891Z,4.80
2022-11-25T08:42:54.902Z,5.95
2022-11-25T08:45:22.355Z,5.72
2022-11-25T08:47:56.672Z,7.05
2022-11-25T08:50:31.574Z,5.90
2022-11-25T08:53:06.892Z,5.95
2022-11-25T08:55:34.251Z,5.22
2022-11-25T08:58:09.358Z,4.35
2022-11-25T09:03:04.697Z,4.53
2022-11-25T09:05:42.610Z,3.70
2022-11-25T09:08:11.035Z,6.22
2022-11-25T09:10:39.989Z,6.13
2022-11-25T09:13:17.774Z,5.30
2022-11-25T09:15:51.961Z,4.18
2022-11-25T09:18:27.808Z,6.10
2022-11-25T09:20:55.133Z,6.80
2022-11-25T09:23:26.124Z,6.95
2022-11-25T09:26:05.583Z,6.00
2022-11-25T09:28:34.659Z,7.35
2022-11-25T09:31:15.609Z,4.47
2022-11-25T09:33:49.533Z,5.38
2022-11-25T09:36:18.648Z,4.93
2022-11-25T09:38:52.599Z,7.75
2022-11-25T09:42:16.528Z,5.75
2022-11-25T09:45:11.613Z,4.57
2022-11-25T09:48:01.075Z,5.78
2022-11-25T09:51:25.843Z,4.38
2022-11-25T09:54:04.313Z,4.07
2022-11-25T09:57:00.622Z,3.65
2022-11-25T09:59:57.223Z,5.00
2022-11-25T10:02:37.557Z,5.55
2022-11-25T10:05:13.861Z,4.15
2022-11-25T10:07:54.867Z,4.85
2022-11-25T10:10:32.950Z,4.03
2022-11-25T10:13:07.796Z,5.63
2022-11-25T10:15:48.649Z,4.35
2022-11-25T10:18:27.357Z,4.43
2022-11-25T10:21:01.561Z,3.90
2022-11-25T10:23:36.012Z,8.33
2022-11-25T10:26:24.656Z,11.90
2022-11-25T10:29:13.551Z,11.45
2022-11-25T10:31:49.697Z,7.53
2022-11-25T10:34:16.897Z,9.60
2022-11-25T10:36:51.536Z,6.10
2022-11-25T10:39:27.416Z,6.38
2022-11-25T10:42:13.599Z,7.15
2022-11-25T10:44:42.632Z,6.20
2022-11-25T10:47:33.700Z,5.85
2022-11-25T10:50:28.928Z,3.33
2022-11-25T10:53:23.180Z,7.07
2022-11-25T10:56:30.464Z,6.85
2022-11-25T10:58:57.646Z,11.25
2022-11-25T11:01:32.869Z,11.30
2022-11-25T11:04:13.609Z,6.90
2022-11-25T11:06:43.738Z,6.75
2022-11-25T11:09:40.521Z,7.82
2022-11-25T11:12:28.822Z,7.95
2022-11-25T11:15:22.591Z,8.50
2022-11-25T11:17:50.238Z,5.22
2022-11-25T11:20:38.582Z,7.57
2022-11-25T11:23:21.679Z,7.00
2022-11-25T11:26:21.128Z,5.45
2022-11-25T11:28:54.583Z,6.68
2022-11-25T11:31:31.687Z,5.50
2022-11-25T11:34:25.620Z,7.80
2022-11-25T11:37:24.524Z,6.30
2022-11-25T11:40:47.107Z,6.55
2022-11-25T11:43:30.602Z,8.35
2022-11-25T11:46:08.494Z,7.55
2022-11-25T11:48:53.785Z,6.47
2022-11-25T11:51:30.737Z,6.55
2022-11-25T11:54:16.718Z,7.00
2022-11-25T11:56:55.014Z,9.15
2022-11-25T11:59:47.577Z,7.43
2022-11-25T12:02:23.983Z,6.70
2022-11-25T12:05:18.588Z,8.50
2022-11-25T12:08:33.659Z,7.35
2022-11-25T12:11:06.222Z,9.70
2022-11-25T12:14:09.590Z,5.68
2022-11-25T12:17:38.141Z,5.35
2022-11-25T12:20:23.621Z,5.60
2022-11-25T12:25:38.973Z,5.47
2022-11-25T12:28:09.598Z,6.50
2022-11-25T12:31:04.766Z,6.47
2022-11-25T12:36:36.948Z,5.97
2022-11-25T12:39:20.738Z,5.30
2022-11-25T12:41:58.503Z,4.55
2022-11-25T12:44:41.727Z,4.63
2022-11-25T12:47:12.063Z,6.35
2022-11-25T12:49:59.734Z,4.85
2022-11-25T12:53:08.759Z,4.97
2022-11-25T12:55:45.046Z,6.50
2022-11-25T12:58:47.691Z,4.00
2022-11-25T13:01:50.167Z,4.35
2022-11-25T13:04:50.714Z,5.35
2022-11-25T13:07:54.721Z,5.55
2022-11-25T13:10:43.959Z,6.13
2022-11-25T13:13:41.158Z,5.03
2022-11-25T13:16:17.102Z,5.38
2022-11-25T13:18:45.721Z,5.13
2022-11-25T13:21:23.098Z,4.32
2022-11-25T13:23:59.641Z,4.60
2022-11-25T13:26:43.587Z,5.68
2022-11-25T13:29:16.289Z,4.65
2022-11-25T13:32:04.708Z,6.78
2022-11-25T13:34:40.673Z,6.35
2022-11-25T13:37:37.750Z,5.40
2022-11-25T13:40:31.010Z,5.00
2022-11-25T13:43:07.831Z,5.80
2022-11-25T13:45:43.706Z,5.45
2022-11-25T13:48:26.701Z,5.18
2022-11-25T13:51:30.990Z,4.95
2022-11-25T13:54:13.619Z,4.00
2022-11-25T13:56:41.098Z,6.35
2022-11-25T13:59:17.786Z,8.20
2022-11-25T14:01:48.250Z,5.90
2022-11-25T14:04:23.579Z,6.38
2022-11-25T14:07:09.626Z,5.32
2022-11-25T14:10:21.695Z,6.90
2022-11-25T14:12:55.211Z,6.97
2022-11-25T14:15:39.671Z,5.07
2022-11-25T14:19:21.726Z,5.68
2022-11-25T14:22:05.965Z,6.70
2022-11-25T14:24:41.786Z,6.20
2022-11-25T14:27:36.962Z,7.13
2022-11-25T14:30:15.662Z,6.13
2022-11-25T14:33:03.419Z,6.07
2022-11-25T14:35:48.679Z,7.47
2022-11-25T14:38:50.636Z,5.43
2022-11-25T14:41:33.796Z,5.72
2022-11-25T14:44:17.091Z,6.25
2022-11-25T14:47:05.683Z,6.78
2022-11-25T14:50:18.690Z,6.70
2022-11-25T14:52:54.633Z,6.45
2022-11-25T14:55:43.793Z,7.47
2022-11-25T14:58:14.189Z,8.35
2022-11-25T15:01:06.670Z,6.50
2022-11-25T15:03:34.376Z,7.78
2022-11-25T15:06:11.970Z,6.85
2022-11-25T15:08:45.016Z,8.65
2022-11-25T15:11:26.641Z,6.80
2022-11-25T15:14:11.301Z,7.38
2022-11-25T15:16:41.592Z,7.37
2022-11-25T15:19:30.649Z,6.65
2022-11-25T15:22:25.016Z,6.68
2022-11-25T15:24:55.866Z,8.80
2022-11-25T15:27:36.661Z,9.15
2022-11-25T15:30:26.617Z,9.57
2022-11-25T15:33:00.630Z,9.50
2022-11-25T15:35:28.331Z,9.13
2022-11-25T15:38:03.572Z,9.98
2022-11-25T15:40:44.876Z,13.88
2022-11-25T15:43:32.810Z,10.05
2022-11-25T15:46:05.659Z,13.00
2022-11-25T15:48:41.844Z,15.95
2022-11-25T15:51:49.573Z,12.60
2022-11-25T15:54:36.840Z,11.35
2022-11-25T15:57:35.139Z,12.40
2022-11-25T16:00:12.796Z,12.77
2022-11-25T16:02:50.282Z,14.38
2022-11-25T16:05:52.067Z,16.50
2022-11-25T16:08:25.795Z,15.13
2022-11-25T16:10:55.835Z,14.10
2022-11-25T16:13:36.649Z,14.02
2022-11-25T16:16:27.077Z,13.02
2022-11-25T16:19:12.580Z,14.65
2022-11-25T16:21:53.622Z,16.00
2022-11-25T16:24:36.926Z,17.08
2022-11-25T16:27:26.587Z,13.68
2022-11-25T16:30:05.675Z,12.93
2022-11-25T16:32:34.864Z,15.98
2022-11-25T16:35:26.975Z,15.02
2022-11-25T16:37:58.841Z,18.33
2022-11-25T16:40:34.715Z,22.27
2022-11-25T16:43:03.563Z,18.48
2022-11-25T16:45:37.838Z,13.88
2022-11-25T16:48:17.587Z,14.82
2022-11-25T16:50:59.696Z,19.10
2022-11-25T16:53:34.795Z,16.10
2022-11-25T17:01:12.949Z,15.95
2022-11-25T17:03:40.216Z,15.07
2022-11-25T17:06:23.125Z,14.88
2022-11-25T17:08:52.017Z,18.60
2022-11-25T17:11:29.747Z,18.10
2022-11-25T17:14:01.713Z,13.35
2022-11-25T17:16:36.961Z,16.13
2022-11-25T17:21:37.678Z,14.40
2022-11-25T17:24:22.397Z,14.93
2022-11-25T17:27:04.006Z,15.23
2022-11-25T17:29:42.824Z,15.27
2022-11-25T17:32:20.669Z,12.07
2022-11-25T17:34:48.333Z,14.93
2022-11-25T17:37:32.665Z,15.23
2022-11-25T17:39:59.784Z,18.00
2022-11-25T17:42:38.819Z,17.52
2022-11-25T17:45:13.346Z,18.20
2022-11-25T17:47:48.260Z,18.33
2022-11-25T17:50:25.934Z,19.00
2022-11-25T17:53:01.620Z,16.50
2022-11-25T17:55:29.223Z,13.40
2022-11-25T17:57:56.505Z,15.23
2022-11-25T18:00:31.796Z,13.82
2022-11-25T18:02:59.334Z,10.95
2022-11-25T18:05:36.693Z,16.52
2022-11-25T18:08:04.285Z,15.82
2022-11-25T18:10:38.686Z,12.55
2022-11-25T18:13:06.780Z,15.70
2022-11-25T18:15:42.110Z,12.98
2022-11-25T18:18:29.457Z,13.43
2022-11-25T18:21:03.885Z,14.57
2022-11-25T18:23:31.177Z,13.85
2022-11-25T18:26:07.635Z,17.55
2022-11-25T18:28:36.825Z,19.15
2022-11-25T18:31:12.788Z,18.50
2022-11-25T18:33:40.816Z,19.20
2022-11-25T18:36:19.716Z,16.20
2022-11-25T18:38:48.698Z,16.65
2022-11-25T18:41:28.855Z,14.48
2022-11-25T18:43:57.504Z,19.80
2022-11-25T18:46:35.001Z,14.35
2022-11-25T18:49:02.336Z,16.20
2022-11-25T18:51:40.614Z,13.77
2022-11-25T18:54:15.813Z,15.50
2022-11-25T18:56:50.548Z,17.60
2022-11-25T18:59:25.103Z,15.30
2022-11-25T19:01:58.868Z,15.35
2022-11-25T19:04:32.705Z,12.52
2022-11-25T19:07:06.921Z,16.60
2022-11-25T19:09:35.213Z,14.53
2022-11-25T19:12:09.796Z,15.27
2022-11-25T19:14:42.193Z,18.00
2022-11-25T19:17:23.736Z,14.52
2022-11-25T19:19:51.395Z,14.40
2022-11-25T19:22:25.869Z,17.73
2022-11-25T19:24:53.507Z,16.75
2022-11-25T19:27:31.693Z,12.00
2022-11-25T19:29:59.460Z,13.23
2022-11-25T19:32:36.830Z,14.38
2022-11-25T19:35:15.863Z,14.38
2022-11-25T19:37:49.679Z,14.38
2022-11-25T19:40:18.820Z,16.67
2022-11-25T19:42:54.781Z,16.50
2022-11-25T19:45:23.270Z,17.75
2022-11-25T19:47:58.800Z,16.48
2022-11-25T19:50:36.763Z,15.13
2022-11-25T19:53:21.921Z,13.95
2022-11-25T19:55:57.625Z,12.50
2022-11-25T19:58:24.920Z,14.30
2022-11-25T20:00:58.812Z,16.02
2022-11-25T20:03:36.716Z,11.40
2022-11-25T20:06:05.660Z,15.48
2022-11-25T20:08:40.800Z,11.88
2022-11-25T20:13:44.351Z,14.33
2022-11-25T20:16:33.145Z,15.32
2022-11-25T20:19:00.820Z,14.02
2022-11-25T20:21:47.630Z,13.15
2022-11-25T20:24:18.944Z,12.35
2022-11-25T20:26:55.785Z,13.13
2022-11-25T20:29:27.528Z,14.13
2022-11-25T20:32:03.664Z,13.50
2022-11-25T20:34:36.154Z,13.10
2022-11-25T20:39:49.670Z,17.35
2022-11-25T20:42:18.320Z,19.45
2022-11-25T20:44:56.078Z,18.15
2022-11-25T20:47:32.771Z,22.38
2022-11-25T20:50:06.856Z,13.45
2022-11-25T20:52:47.812Z,13.45
2022-11-25T20:55:21.280Z,17.50
2022-11-25T20:57:56.274Z,12.20
2022-11-25T21:00:32.700Z,13.45
2022-11-25T21:03:00.090Z,13.38
2022-11-25T21:05:34.724Z,16.20
2022-11-25T21:08:02.025Z,14.32
2022-11-25T21:10:42.651Z,9.95
2022-11-25T21:13:23.721Z,10.15
2022-11-25T21:15:53.623Z,11.27
2022-11-25T21:18:22.161Z,11.07
2022-11-25T21:20:57.775Z,12.57
2022-11-25T21:23:42.750Z,15.05
2022-11-25T21:26:24.919Z,12.38
2022-11-25T21:28:54.419Z,12.50
2022-11-25T21:31:30.825Z,11.82
2022-11-25T21:34:01.270Z,11.02
2022-11-25T21:36:37.665Z,11.10
2022-11-25T21:39:36.630Z,11.20
2022-11-25T21:42:07.735Z,11.40
2022-11-25T21:44:45.931Z,10.68
2022-11-25T21:47:31.596Z,10.50
2022-11-25T21:50:05.710Z,11.50
2022-11-25T21:52:46.882Z,8.68
2022-11-25T21:55:17.949Z,10.88
2022-11-25T21:57:52.089Z,9.13
2022-11-25T22:00:31.782Z,15.13
2022-11-25T22:02:59.018Z,11.13
2022-11-25T22:05:32.770Z,9.88
2022-11-25T22:08:00.135Z,8.40
2022-11-25T22:10:27.349Z,10.80
2022-11-25T22:13:01.683Z,10.85
2022-11-25T22:15:35.827Z,8.93
2022-11-25T22:18:03.377Z,9.48
2022-11-25T22:20:41.966Z,11.55
2022-11-25T22:23:16.592Z,9.43
2022-11-25T22:25:52.142Z,9.10
2022-11-25T22:28:30.595Z,11.80
2022-11-25T22:31:13.160Z,7.38
2022-11-25T22:33:41.097Z,9.80
2022-11-25T22:36:52.837Z,7.05
2022-11-25T22:39:25.793Z,11.73
2022-11-25T22:42:01.956Z,8.65
2022-11-25T22:44:41.044Z,9.63
2022-11-25T22:47:30.807Z,8.60
2022-11-25T22:49:58.835Z,7.88
2022-11-25T22:52:41.741Z,7.28
2022-11-25T22:55:28.722Z,8.27
2022-11-25T22:58:02.527Z,8.45
2022-11-25T23:00:39.729Z,7.00
2022-11-25T23:03:08.493Z,7.57
2022-11-25T23:05:43.746Z,9.15
2022-11-25T23:08:18.135Z,8.60
2022-11-25T23:10:54.186Z,5.90
2022-11-25T23:13:23.023Z,6.85
2022-11-25T23:16:01.850Z,7.72
2022-11-25T23:18:54.802Z,8.10
2022-11-25T23:21:25.256Z,7.50
2022-11-25T23:23:59.712Z,9.05
2022-11-25T23:26:35.120Z,8.32
2022-11-25T23:29:02.547Z,7.35
2022-11-25T23:31:36.897Z,7.05
2022-11-25T23:34:08.491Z,7.95
2022-11-25T23:36:49.682Z,8.70
2022-11-25T23:39:28.745Z,8.55
2022-11-25T23:41:56.241Z,10.73
2022-11-25T23:44:35.388Z,9.25
2022-11-25T23:47:05.596Z,9.82
2022-11-25T23:50:02.755Z,10.55
2022-11-25T23:52:42.765Z,11.07
2022-11-25T23:55:20.128Z,10.57
2022-11-25T23:57:55.759Z,7.80
